Minocqua, Wisconsin
Current Conditions -  °F | °C
As of 10:55 PM on Saturday 22 Nov 2014 (Local Time) from KARV Reporting Station
Haze Haze  
Wind Chill: 32°   Ceiling: 200
Heat Index: 37°   Visibility: 1mi
Dew Point: 36°   Wind: 6mph
Humidity: 97%   Direction: 190°S
Pressure: 29.66"   Gusts: NA
Location:  45.93°N, 89.73°W
Report Text: KARV 230455Z AUTO 19005KT 1SM BR OVC002 03/02 A2966 RMK AO2 T00250020
Loading
Personal Weather Stations






























Interactive Weather Map New forecast layout! Learn more

10-Day Weather Forecast

Advertisements
Track Severe Weather on mobile